createdAt,value
2022-11-25T00:03:18.820Z,93522.70
2022-11-25T00:08:25.549Z,93523.83
2022-11-25T00:13:32.979Z,93523.06
2022-11-25T00:18:40.426Z,93527.05
2022-11-25T00:23:53.656Z,93529.66
2022-11-25T00:29:02.705Z,93531.38
2022-11-25T00:34:11.483Z,93532.00
2022-11-25T00:39:20.485Z,93536.55
2022-11-25T00:44:37.727Z,93538.33
2022-11-25T00:49:55.208Z,93530.56
2022-11-25T00:55:02.019Z,93523.13
2022-11-25T01:00:11.378Z,93532.23
2022-11-25T01:05:18.824Z,93532.13
2022-11-25T01:10:25.729Z,93526.81
2022-11-25T01:15:33.255Z,93524.93
2022-11-25T01:20:40.136Z,93522.87
2022-11-25T01:25:47.238Z,93534.33
2022-11-25T01:31:15.181Z,93543.31
2022-11-25T01:36:22.288Z,93540.17
2022-11-25T01:41:32.975Z,93544.53
2022-11-25T01:46:59.600Z,93557.39
2022-11-25T01:52:28.337Z,93563.69
2022-11-25T01:57:45.517Z,93559.31
2022-11-25T02:02:55.653Z,93565.63
2022-11-25T02:08:03.500Z,93566.91
2022-11-25T02:13:12.021Z,93571.43
2022-11-25T02:18:18.895Z,93569.20
2022-11-25T02:23:43.028Z,93570.75
2022-11-25T02:28:50.449Z,93574.94
2022-11-25T02:33:57.653Z,93576.03
2022-11-25T02:39:05.349Z,93581.00
2022-11-25T02:44:13.444Z,93582.18
2022-11-25T02:49:20.389Z,93580.37
2022-11-25T02:54:27.211Z,93398.19
2022-11-25T02:59:34.873Z,93590.87
2022-11-25T03:04:43.507Z,93601.05
2022-11-25T03:09:50.435Z,93601.70
2022-11-25T03:14:59.317Z,93595.75
2022-11-25T03:20:08.595Z,93593.28
2022-11-25T03:25:16.914Z,93599.83
2022-11-25T03:30:27.259Z,93611.52
2022-11-25T03:35:39.291Z,93615.08
2022-11-25T03:40:47.661Z,93612.33
2022-11-25T03:45:54.549Z,93617.56
2022-11-25T03:51:01.445Z,93618.45
2022-11-25T03:56:11.394Z,93618.66
2022-11-25T04:01:32.012Z,93618.45
2022-11-25T04:06:40.832Z,93618.23
2022-11-25T04:12:05.172Z,93611.38
2022-11-25T04:17:11.036Z,93607.35
2022-11-25T04:22:17.797Z,93605.08
2022-11-25T04:27:24.519Z,93597.62
2022-11-25T04:32:31.265Z,93592.84
2022-11-25T04:37:37.963Z,93592.72
2022-11-25T04:42:44.842Z,93588.05
2022-11-25T04:47:51.759Z,93583.44
2022-11-25T04:52:58.463Z,93588.91
2022-11-25T04:58:05.221Z,93592.15
2022-11-25T05:03:12.492Z,93591.52
2022-11-25T05:08:19.286Z,93596.70
2022-11-25T05:13:26.271Z,93600.47
2022-11-25T05:18:33.606Z,93602.07
2022-11-25T05:23:40.352Z,93596.88
2022-11-25T05:28:47.089Z,93600.07
2022-11-25T05:33:54.314Z,93612.30
2022-11-25T05:39:02.557Z,93622.65
2022-11-25T05:44:09.991Z,93631.38
2022-11-25T05:49:18.156Z,93626.89
2022-11-25T05:54:25.772Z,93640.19
2022-11-25T05:59:32.945Z,93638.94
2022-11-25T06:04:39.863Z,93638.66
2022-11-25T06:09:46.708Z,93634.28
2022-11-25T06:14:54.033Z,93635.97
2022-11-25T06:20:00.714Z,93642.00
2022-11-25T06:25:09.774Z,93654.06
2022-11-25T06:30:17.309Z,93480.47
2022-11-25T06:35:24.594Z,93635.53
2022-11-25T06:40:31.854Z,93647.23
2022-11-25T06:45:38.646Z,93651.97
2022-11-25T06:50:45.628Z,93661.27
2022-11-25T06:55:53.788Z,93669.05
2022-11-25T07:01:07.294Z,93675.45
2022-11-25T07:06:18.826Z,93675.17
2022-11-25T07:11:41.128Z,93690.73
2022-11-25T07:16:48.236Z,93687.53
2022-11-25T07:21:54.840Z,93691.02
2022-11-25T07:27:01.515Z,93692.10
2022-11-25T07:32:10.716Z,93694.12
2022-11-25T07:37:18.071Z,93692.25
2022-11-25T07:42:24.931Z,93694.97
2022-11-25T07:47:31.696Z,93698.00
2022-11-25T07:52:41.483Z,93704.81
2022-11-25T07:57:49.007Z,93709.05
2022-11-25T08:02:55.842Z,93715.77
2022-11-25T08:08:02.804Z,93717.78
2022-11-25T08:13:09.728Z,93722.27
2022-11-25T08:18:17.044Z,93725.63
2022-11-25T08:23:23.823Z,93732.78
2022-11-25T08:28:30.573Z,93727.52
2022-11-25T08:33:37.334Z,93727.48
2022-11-25T08:38:44.835Z,93729.20
2022-11-25T08:43:52.378Z,93734.51
2022-11-25T08:48:59.523Z,93727.91
2022-11-25T08:54:09.477Z,93731.71
2022-11-25T08:59:16.344Z,93731.59
2022-11-25T09:04:23.578Z,93730.77
2022-11-25T09:09:30.929Z,93727.06
2022-11-25T09:14:37.713Z,93730.71
2022-11-25T09:19:44.622Z,93722.16
2022-11-25T09:24:51.589Z,93717.95
2022-11-25T09:29:58.458Z,93719.21
2022-11-25T09:35:06.063Z,93728.52
2022-11-25T09:40:38.482Z,93722.55
2022-11-25T09:46:12.672Z,93718.89
2022-11-25T09:51:35.233Z,93725.17
2022-11-25T09:56:46.248Z,93714.02
2022-11-25T10:02:03.227Z,93709.00
2022-11-25T10:07:15.220Z,93703.73
2022-11-25T10:12:38.732Z,93696.99
2022-11-25T10:17:52.177Z,93693.03
2022-11-25T10:23:05.804Z,93687.09
2022-11-25T10:28:23.513Z,93684.63
2022-11-25T10:33:46.195Z,93682.48
2022-11-25T10:39:09.005Z,93685.78
2022-11-25T10:44:32.018Z,93679.09
2022-11-25T10:50:11.683Z,93665.73
2022-11-25T10:55:26.639Z,93665.66
2022-11-25T11:00:39.945Z,93659.41
2022-11-25T11:05:51.067Z,93658.57
2022-11-25T11:11:23.886Z,93645.73
2022-11-25T11:16:43.575Z,93647.48
2022-11-25T11:21:51.820Z,93640.73
2022-11-25T11:27:26.112Z,93640.94
2022-11-25T11:32:32.922Z,93655.16
2022-11-25T11:37:44.733Z,93649.51
2022-11-25T11:43:04.632Z,93655.55
2022-11-25T11:48:33.448Z,93652.16
2022-11-25T11:53:59.125Z,93657.38
2022-11-25T11:59:36.987Z,93659.13
2022-11-25T12:05:09.381Z,93655.02
2022-11-25T12:10:50.177Z,93651.87
2022-11-25T12:16:17.881Z,93648.66
2022-11-25T12:21:50.187Z,93644.75
2022-11-25T12:27:22.614Z,93637.87
2022-11-25T12:32:51.939Z,93644.20
2022-11-25T12:38:14.910Z,93644.17
2022-11-25T12:43:29.429Z,93648.88
2022-11-25T12:48:41.047Z,93646.25
2022-11-25T12:54:23.726Z,93638.31
2022-11-25T12:59:46.974Z,93640.70
2022-11-25T13:05:32.880Z,93638.00
2022-11-25T13:10:42.130Z,93631.88
2022-11-25T13:15:51.006Z,93637.41
2022-11-25T13:21:01.108Z,93633.70
2022-11-25T13:26:36.550Z,93636.31
2022-11-25T13:32:04.282Z,93642.81
2022-11-25T13:37:42.703Z,93648.43
2022-11-25T13:42:49.708Z,93664.35
2022-11-25T13:47:58.153Z,93659.72
2022-11-25T13:53:26.553Z,93658.09
2022-11-25T13:58:35.060Z,93662.52
2022-11-25T14:03:50.384Z,93663.31
2022-11-25T14:09:07.630Z,93660.55
2022-11-25T14:14:50.128Z,93650.94
2022-11-25T14:20:31.102Z,93652.55
2022-11-25T14:25:59.312Z,93656.91
2022-11-25T14:31:18.445Z,93656.77
2022-11-25T14:36:38.739Z,93661.66
2022-11-25T14:41:55.898Z,93670.60
2022-11-25T14:47:06.348Z,93669.61
2022-11-25T14:52:18.917Z,93661.74
2022-11-25T14:57:30.832Z,93663.14
2022-11-25T15:02:42.030Z,93674.80
2022-11-25T15:08:15.444Z,93676.58
2022-11-25T15:13:41.773Z,93675.78
2022-11-25T15:19:00.718Z,93681.88
2022-11-25T15:24:10.710Z,93675.31
2022-11-25T15:29:18.366Z,93676.92
2022-11-25T15:34:26.244Z,93675.37
2022-11-25T15:39:32.938Z,93675.05
2022-11-25T15:44:44.315Z,93678.66
2022-11-25T15:50:12.065Z,93682.55
2022-11-25T15:55:38.003Z,93686.72
2022-11-25T16:00:46.880Z,93692.59
2022-11-25T16:05:59.229Z,93700.19
2022-11-25T16:11:21.358Z,93706.47
2022-11-25T16:16:32.448Z,93696.25
2022-11-25T16:21:43.659Z,93704.00
2022-11-25T16:27:02.643Z,93699.22
2022-11-25T16:32:16.394Z,93706.69
2022-11-25T16:37:22.924Z,93715.22
2022-11-25T16:42:29.968Z,93715.42
2022-11-25T16:47:36.648Z,93708.81
2022-11-25T16:52:43.774Z,93709.22
2022-11-25T16:57:51.460Z,93705.84
2022-11-25T17:02:58.525Z,93711.55
2022-11-25T17:08:06.066Z,93710.59
2022-11-25T17:13:19.581Z,93720.81
2022-11-25T17:18:26.482Z,93717.21
2022-11-25T17:23:33.700Z,93723.62
2022-11-25T17:28:40.383Z,93730.89
2022-11-25T17:33:49.204Z,93732.36
2022-11-25T17:38:56.648Z,93732.36
2022-11-25T17:44:03.774Z,93740.47
2022-11-25T17:49:16.671Z,93750.67
2022-11-25T17:54:23.487Z,93757.31
2022-11-25T17:59:33.153Z,93758.68
2022-11-25T18:04:40.138Z,93761.58
2022-11-25T18:09:47.615Z,93769.32
2022-11-25T18:14:54.467Z,93770.45
2022-11-25T18:20:01.203Z,93776.92
2022-11-25T18:25:09.589Z,93778.94
2022-11-25T18:30:26.403Z,93656.70
2022-11-25T18:35:37.181Z,93794.47
2022-11-25T18:40:50.431Z,93799.77
2022-11-25T18:45:56.014Z,93808.55
2022-11-25T18:51:03.022Z,93812.32
2022-11-25T18:56:17.933Z,93814.14
2022-11-25T19:01:25.444Z,93820.36
2022-11-25T19:06:32.914Z,93821.07
2022-11-25T19:11:43.727Z,93823.45
2022-11-25T19:16:50.427Z,93833.10
2022-11-25T19:21:58.789Z,93833.45
2022-11-25T19:27:05.663Z,93836.81
2022-11-25T19:32:19.855Z,93840.61
2022-11-25T19:37:28.645Z,93848.14
2022-11-25T19:42:36.369Z,93850.15
2022-11-25T19:47:48.979Z,93856.71
2022-11-25T19:52:56.796Z,93870.00
2022-11-25T19:58:03.754Z,93866.86
2022-11-25T20:03:26.328Z,93872.56
2022-11-25T20:08:33.479Z,93875.60
2022-11-25T20:13:45.152Z,93884.44
2022-11-25T20:18:53.701Z,93884.67
2022-11-25T20:24:01.390Z,93880.97
2022-11-25T20:29:19.041Z,93881.77
2022-11-25T20:34:28.812Z,93883.81
2022-11-25T20:39:36.141Z,93886.89
2022-11-25T20:44:42.765Z,93891.11
2022-11-25T20:49:50.789Z,93901.53
2022-11-25T20:54:57.984Z,93902.69
2022-11-25T21:00:16.737Z,93905.83
2022-11-25T21:05:25.571Z,93910.43
2022-11-25T21:10:38.985Z,93909.02
2022-11-25T21:15:46.585Z,93922.50
2022-11-25T21:20:57.922Z,93914.91
2022-11-25T21:26:14.749Z,93913.77
2022-11-25T21:31:26.500Z,93909.70
2022-11-25T21:36:34.324Z,93911.03
2022-11-25T21:41:41.804Z,93913.73
2022-11-25T21:46:48.854Z,93922.73
2022-11-25T21:51:55.539Z,93923.02
2022-11-25T21:57:02.739Z,93922.09
2022-11-25T22:02:22.513Z,93939.02
2022-11-25T22:07:31.081Z,93937.67
2022-11-25T22:12:41.326Z,93952.56
2022-11-25T22:17:49.189Z,93959.13
2022-11-25T22:22:56.734Z,93968.59
2022-11-25T22:28:03.794Z,93970.17
2022-11-25T22:33:12.904Z,93982.27
2022-11-25T22:38:20.524Z,93983.45
2022-11-25T22:43:33.849Z,93977.98
2022-11-25T22:48:42.014Z,93982.14
2022-11-25T22:53:49.026Z,93989.00
2022-11-25T22:58:57.393Z,93983.74
2022-11-25T23:04:04.888Z,93986.23
2022-11-25T23:09:20.058Z,93996.27
2022-11-25T23:14:27.019Z,93999.70
2022-11-25T23:19:34.048Z,93994.48
2022-11-25T23:24:49.550Z,94004.59
2022-11-25T23:29:56.764Z,94012.91
2022-11-25T23:35:04.467Z,94009.42
2022-11-25T23:40:21.216Z,94014.36
2022-11-25T23:45:29.436Z,94016.02
2022-11-25T23:50:37.106Z,94014.07
2022-11-25T23:55:45.581Z,94009.39
